sensor_id;sensor_type;location;lat;lon;timestamp;P1;durP1;ratioP1;P2;durP2;ratioP2
5890;SDS011;2971;52.420;7.080;2023-07-02T00:00:06;5.00;;;4.53;;
5890;SDS011;2971;52.420;7.080;2023-07-02T00:02:32;4.60;;;4.20;;
5890;SDS011;2971;52.420;7.080;2023-07-02T00:04:57;5.60;;;4.40;;
5890;SDS011;2971;52.420;7.080;2023-07-02T00:07:22;4.80;;;4.30;;
5890;SDS011;2971;52.420;7.080;2023-07-02T00:09:47;4.63;;;3.77;;
5890;SDS011;2971;52.420;7.080;2023-07-02T00:12:13;7.67;;;4.33;;
5890;SDS011;2971;52.420;7.080;2023-07-02T00:14:38;4.60;;;4.00;;
5890;SDS011;2971;52.420;7.080;2023-07-02T00:17:04;4.80;;;4.17;;
5890;SDS011;2971;52.420;7.080;2023-07-02T00:19:29;5.13;;;4.00;;
5890;SDS011;2971;52.420;7.080;2023-07-02T00:21:54;4.80;;;3.80;;
5890;SDS011;2971;52.420;7.080;2023-07-02T00:24:20;5.17;;;4.20;;
5890;SDS011;2971;52.420;7.080;2023-07-02T00:26:45;5.93;;;4.70;;
5890;SDS011;2971;52.420;7.080;2023-07-02T00:29:10;4.60;;;4.00;;
5890;SDS011;2971;52.420;7.080;2023-07-02T00:31:36;5.47;;;4.27;;
5890;SDS011;2971;52.420;7.080;2023-07-02T00:34:01;4.90;;;4.40;;
5890;SDS011;2971;52.420;7.080;2023-07-02T00:36:27;5.00;;;4.10;;
5890;SDS011;2971;52.420;7.080;2023-07-02T00:38:52;6.37;;;4.73;;
5890;SDS011;2971;52.420;7.080;2023-07-02T00:41:18;5.30;;;4.53;;
5890;SDS011;2971;52.420;7.080;2023-07-02T00:43:43;7.23;;;4.57;;
5890;SDS011;2971;52.420;7.080;2023-07-02T00:46:18;4.73;;;4.33;;
5890;SDS011;2971;52.420;7.080;2023-07-02T00:48:46;5.97;;;4.40;;
5890;SDS011;2971;52.420;7.080;2023-07-02T00:51:15;6.20;;;4.60;;
5890;SDS011;2971;52.420;7.080;2023-07-02T00:53:41;4.80;;;4.40;;
5890;SDS011;2971;52.420;7.080;2023-07-02T00:56:06;4.87;;;4.37;;
5890;SDS011;2971;52.420;7.080;2023-07-02T00:58:33;5.20;;;4.73;;
5890;SDS011;2971;52.420;7.080;2023-07-02T01:00:59;5.00;;;4.50;;
5890;SDS011;2971;52.420;7.080;2023-07-02T01:03:25;5.13;;;4.63;;
5890;SDS011;2971;52.420;7.080;2023-07-02T01:05:50;5.40;;;4.90;;
5890;SDS011;2971;52.420;7.080;2023-07-02T01:08:15;6.43;;;4.80;;
5890;SDS011;2971;52.420;7.080;2023-07-02T01:10:41;5.97;;;5.00;;
5890;SDS011;2971;52.420;7.080;2023-07-02T01:13:12;6.70;;;5.10;;
5890;SDS011;2971;52.420;7.080;2023-07-02T01:15:39;6.10;;;4.60;;
5890;SDS011;2971;52.420;7.080;2023-07-02T01:18:05;5.93;;;4.87;;
5890;SDS011;2971;52.420;7.080;2023-07-02T01:20:30;5.13;;;4.63;;
5890;SDS011;2971;52.420;7.080;2023-07-02T01:22:56;8.80;;;4.73;;
5890;SDS011;2971;52.420;7.080;2023-07-02T01:25:22;5.10;;;4.70;;
5890;SDS011;2971;52.420;7.080;2023-07-02T01:27:49;8.17;;;5.23;;
5890;SDS011;2971;52.420;7.080;2023-07-02T01:30:15;7.63;;;5.10;;
5890;SDS011;2971;52.420;7.080;2023-07-02T01:32:41;6.33;;;4.83;;
5890;SDS011;2971;52.420;7.080;2023-07-02T01:35:06;6.67;;;5.10;;
5890;SDS011;2971;52.420;7.080;2023-07-02T01:37:32;7.53;;;5.03;;
5890;SDS011;2971;52.420;7.080;2023-07-02T01:40:02;6.40;;;4.73;;
5890;SDS011;2971;52.420;7.080;2023-07-02T01:42:28;5.20;;;4.67;;
5890;SDS011;2971;52.420;7.080;2023-07-02T01:44:53;5.93;;;4.83;;
5890;SDS011;2971;52.420;7.080;2023-07-02T01:47:18;5.60;;;4.87;;
5890;SDS011;2971;52.420;7.080;2023-07-02T01:49:45;8.67;;;5.13;;
5890;SDS011;2971;52.420;7.080;2023-07-02T01:52:10;5.87;;;4.73;;
5890;SDS011;2971;52.420;7.080;2023-07-02T01:54:35;6.73;;;5.10;;
5890;SDS011;2971;52.420;7.080;2023-07-02T01:57:01;6.43;;;5.07;;
5890;SDS011;2971;52.420;7.080;2023-07-02T01:59:27;8.20;;;5.27;;
5890;SDS011;2971;52.420;7.080;2023-07-02T02:01:52;7.20;;;5.53;;
5890;SDS011;2971;52.420;7.080;2023-07-02T02:04:17;5.90;;;5.20;;
5890;SDS011;2971;52.420;7.080;2023-07-02T02:06:43;7.37;;;5.50;;
5890;SDS011;2971;52.420;7.080;2023-07-02T02:09:08;7.63;;;5.30;;
5890;SDS011;2971;52.420;7.080;2023-07-02T02:11:40;9.03;;;5.80;;
5890;SDS011;2971;52.420;7.080;2023-07-02T02:14:05;7.90;;;5.43;;
5890;SDS011;2971;52.420;7.080;2023-07-02T02:16:30;10.43;;;5.87;;
5890;SDS011;2971;52.420;7.080;2023-07-02T02:18:58;7.20;;;5.57;;
5890;SDS011;2971;52.420;7.080;2023-07-02T02:21:24;11.83;;;6.07;;
5890;SDS011;2971;52.420;7.080;2023-07-02T02:23:49;9.10;;;5.60;;
5890;SDS011;2971;52.420;7.080;2023-07-02T02:26:14;9.23;;;5.30;;
5890;SDS011;2971;52.420;7.080;2023-07-02T02:28:40;9.70;;;6.27;;
5890;SDS011;2971;52.420;7.080;2023-07-02T02:31:05;11.60;;;6.00;;
5890;SDS011;2971;52.420;7.080;2023-07-02T02:33:31;10.83;;;5.80;;
5890;SDS011;2971;52.420;7.080;2023-07-02T02:35:57;11.30;;;5.90;;
5890;SDS011;2971;52.420;7.080;2023-07-02T02:38:22;11.10;;;6.63;;
5890;SDS011;2971;52.420;7.080;2023-07-02T02:40:47;11.00;;;6.40;;
5890;SDS011;2971;52.420;7.080;2023-07-02T02:43:12;8.43;;;5.97;;
5890;SDS011;2971;52.420;7.080;2023-07-02T02:45:38;13.83;;;6.50;;
5890;SDS011;2971;52.420;7.080;2023-07-02T02:48:03;13.63;;;6.47;;
5890;SDS011;2971;52.420;7.080;2023-07-02T02:50:29;11.47;;;6.83;;
5890;SDS011;2971;52.420;7.080;2023-07-02T02:52:54;14.07;;;6.97;;
5890;SDS011;2971;52.420;7.080;2023-07-02T02:55:19;13.37;;;6.20;;
5890;SDS011;2971;52.420;7.080;2023-07-02T02:57:45;12.17;;;6.47;;
5890;SDS011;2971;52.420;7.080;2023-07-02T03:00:10;13.33;;;6.80;;
5890;SDS011;2971;52.420;7.080;2023-07-02T03:02:36;11.60;;;7.13;;
5890;SDS011;2971;52.420;7.080;2023-07-02T03:05:03;13.90;;;7.00;;
5890;SDS011;2971;52.420;7.080;2023-07-02T03:07:29;12.37;;;7.07;;
5890;SDS011;2971;52.420;7.080;2023-07-02T03:09:54;13.07;;;6.90;;
5890;SDS011;2971;52.420;7.080;2023-07-02T03:12:19;10.37;;;6.80;;
5890;SDS011;2971;52.420;7.080;2023-07-02T03:14:44;14.27;;;6.93;;
5890;SDS011;2971;52.420;7.080;2023-07-02T03:17:12;9.77;;;6.60;;
5890;SDS011;2971;52.420;7.080;2023-07-02T03:19:38;11.33;;;6.77;;
5890;SDS011;2971;52.420;7.080;2023-07-02T03:22:03;13.53;;;7.43;;
5890;SDS011;2971;52.420;7.080;2023-07-02T03:24:28;12.03;;;7.13;;
5890;SDS011;2971;52.420;7.080;2023-07-02T03:26:53;10.83;;;6.80;;
5890;SDS011;2971;52.420;7.080;2023-07-02T03:29:19;11.17;;;7.27;;
5890;SDS011;2971;52.420;7.080;2023-07-02T03:31:45;11.77;;;7.53;;
5890;SDS011;2971;52.420;7.080;2023-07-02T03:34:11;15.00;;;7.87;;
5890;SDS011;2971;52.420;7.080;2023-07-02T03:36:36;15.30;;;8.00;;
5890;SDS011;2971;52.420;7.080;2023-07-02T03:39:02;15.37;;;7.80;;
5890;SDS011;2971;52.420;7.080;2023-07-02T03:41:28;16.13;;;8.67;;
5890;SDS011;2971;52.420;7.080;2023-07-02T03:43:53;12.60;;;8.23;;
5890;SDS011;2971;52.420;7.080;2023-07-02T03:46:18;17.67;;;9.40;;
5890;SDS011;2971;52.420;7.080;2023-07-02T03:48:44;14.07;;;8.80;;
5890;SDS011;2971;52.420;7.080;2023-07-02T03:51:10;16.07;;;10.17;;
5890;SDS011;2971;52.420;7.080;2023-07-02T03:53:36;17.27;;;9.40;;
5890;SDS011;2971;52.420;7.080;2023-07-02T03:56:01;17.03;;;9.37;;
5890;SDS011;2971;52.420;7.080;2023-07-02T03:58:26;18.37;;;9.30;;
5890;SDS011;2971;52.420;7.080;2023-07-02T04:00:51;18.13;;;9.40;;
5890;SDS011;2971;52.420;7.080;2023-07-02T04:03:17;17.43;;;9.63;;
5890;SDS011;2971;52.420;7.080;2023-07-02T04:05:42;16.90;;;9.57;;
5890;SDS011;2971;52.420;7.080;2023-07-02T04:08:07;18.33;;;9.90;;
5890;SDS011;2971;52.420;7.080;2023-07-02T04:10:33;21.50;;;10.00;;
5890;SDS011;2971;52.420;7.080;2023-07-02T04:12:59;22.20;;;10.30;;
5890;SDS011;2971;52.420;7.080;2023-07-02T04:15:24;23.30;;;10.80;;
5890;SDS011;2971;52.420;7.080;2023-07-02T04:17:51;16.17;;;10.33;;
5890;SDS011;2971;52.420;7.080;2023-07-02T04:20:16;19.63;;;10.13;;
5890;SDS011;2971;52.420;7.080;2023-07-02T04:22:44;17.40;;;10.83;;
5890;SDS011;2971;52.420;7.080;2023-07-02T04:25:09;18.13;;;10.00;;
5890;SDS011;2971;52.420;7.080;2023-07-02T04:27:34;17.50;;;10.33;;
5890;SDS011;2971;52.420;7.080;2023-07-02T04:29:59;17.03;;;10.13;;
5890;SDS011;2971;52.420;7.080;2023-07-02T04:32:25;20.33;;;10.00;;
5890;SDS011;2971;52.420;7.080;2023-07-02T04:34:50;17.10;;;9.47;;
5890;SDS011;2971;52.420;7.080;2023-07-02T04:37:15;18.43;;;10.03;;
5890;SDS011;2971;52.420;7.080;2023-07-02T04:39:42;18.30;;;9.93;;
5890;SDS011;2971;52.420;7.080;2023-07-02T04:42:07;20.77;;;10.20;;
5890;SDS011;2971;52.420;7.080;2023-07-02T04:44:34;18.30;;;9.77;;
5890;SDS011;2971;52.420;7.080;2023-07-02T04:47:00;27.37;;;11.30;;
5890;SDS011;2971;52.420;7.080;2023-07-02T04:49:26;17.87;;;9.77;;
5890;SDS011;2971;52.420;7.080;2023-07-02T04:51:51;20.33;;;10.37;;
5890;SDS011;2971;52.420;7.080;2023-07-02T04:54:19;19.27;;;9.87;;
5890;SDS011;2971;52.420;7.080;2023-07-02T04:56:44;23.03;;;10.07;;
5890;SDS011;2971;52.420;7.080;2023-07-02T04:59:09;17.33;;;10.10;;
5890;SDS011;2971;52.420;7.080;2023-07-02T05:01:34;20.37;;;9.97;;
5890;SDS011;2971;52.420;7.080;2023-07-02T05:04:00;19.63;;;10.57;;
5890;SDS011;2971;52.420;7.080;2023-07-02T05:06:25;19.80;;;10.50;;
5890;SDS011;2971;52.420;7.080;2023-07-02T05:08:50;16.80;;;10.17;;
5890;SDS011;2971;52.420;7.080;2023-07-02T05:11:17;23.47;;;11.20;;
5890;SDS011;2971;52.420;7.080;2023-07-02T05:13:42;21.07;;;10.43;;
5890;SDS011;2971;52.420;7.080;2023-07-02T05:16:08;19.27;;;10.47;;
5890;SDS011;2971;52.420;7.080;2023-07-02T05:18:33;20.67;;;10.43;;
5890;SDS011;2971;52.420;7.080;2023-07-02T05:20:58;21.87;;;10.57;;
5890;SDS011;2971;52.420;7.080;2023-07-02T05:23:23;19.07;;;10.00;;
5890;SDS011;2971;52.420;7.080;2023-07-02T05:25:49;20.47;;;10.13;;
5890;SDS011;2971;52.420;7.080;2023-07-02T05:28:14;17.73;;;10.20;;
5890;SDS011;2971;52.420;7.080;2023-07-02T05:30:39;19.00;;;10.20;;
5890;SDS011;2971;52.420;7.080;2023-07-02T05:33:04;19.10;;;9.40;;
5890;SDS011;2971;52.420;7.080;2023-07-02T05:35:30;17.37;;;9.07;;
5890;SDS011;2971;52.420;7.080;2023-07-02T05:37:55;20.73;;;10.20;;
5890;SDS011;2971;52.420;7.080;2023-07-02T05:40:20;18.93;;;9.57;;
5890;SDS011;2971;52.420;7.080;2023-07-02T05:42:45;18.57;;;10.17;;
5890;SDS011;2971;52.420;7.080;2023-07-02T05:45:11;18.43;;;10.30;;
5890;SDS011;2971;52.420;7.080;2023-07-02T05:47:36;16.60;;;9.67;;
5890;SDS011;2971;52.420;7.080;2023-07-02T05:50:01;17.60;;;9.77;;
5890;SDS011;2971;52.420;7.080;2023-07-02T05:52:27;21.30;;;10.50;;
5890;SDS011;2971;52.420;7.080;2023-07-02T05:54:52;21.57;;;10.30;;
5890;SDS011;2971;52.420;7.080;2023-07-02T05:57:17;21.47;;;10.80;;
5890;SDS011;2971;52.420;7.080;2023-07-02T05:59:42;21.03;;;10.60;;
5890;SDS011;2971;52.420;7.080;2023-07-02T06:02:07;18.73;;;9.97;;
5890;SDS011;2971;52.420;7.080;2023-07-02T06:04:33;20.67;;;10.57;;
5890;SDS011;2971;52.420;7.080;2023-07-02T06:06:58;22.80;;;10.53;;
5890;SDS011;2971;52.420;7.080;2023-07-02T06:09:24;23.47;;;10.53;;
5890;SDS011;2971;52.420;7.080;2023-07-02T06:11:49;23.00;;;10.63;;
5890;SDS011;2971;52.420;7.080;2023-07-02T06:14:14;22.03;;;10.27;;
5890;SDS011;2971;52.420;7.080;2023-07-02T06:16:39;21.10;;;10.80;;
5890;SDS011;2971;52.420;7.080;2023-07-02T06:19:05;18.90;;;10.07;;
5890;SDS011;2971;52.420;7.080;2023-07-02T06:21:30;22.97;;;10.77;;
5890;SDS011;2971;52.420;7.080;2023-07-02T06:23:56;20.70;;;10.37;;
5890;SDS011;2971;52.420;7.080;2023-07-02T06:26:22;21.40;;;10.23;;
5890;SDS011;2971;52.420;7.080;2023-07-02T06:28:48;22.53;;;10.67;;
5890;SDS011;2971;52.420;7.080;2023-07-02T06:31:13;22.17;;;10.40;;
5890;SDS011;2971;52.420;7.080;2023-07-02T06:33:41;21.27;;;10.30;;
5890;SDS011;2971;52.420;7.080;2023-07-02T06:36:07;23.07;;;10.57;;
5890;SDS011;2971;52.420;7.080;2023-07-02T06:38:32;25.53;;;11.30;;
5890;SDS011;2971;52.420;7.080;2023-07-02T06:40:57;25.63;;;11.13;;
5890;SDS011;2971;52.420;7.080;2023-07-02T06:43:23;23.57;;;11.07;;
5890;SDS011;2971;52.420;7.080;2023-07-02T06:45:48;24.83;;;10.63;;
5890;SDS011;2971;52.420;7.080;2023-07-02T06:48:13;23.47;;;10.60;;
5890;SDS011;2971;52.420;7.080;2023-07-02T06:50:43;19.73;;;10.13;;
5890;SDS011;2971;52.420;7.080;2023-07-02T06:53:08;25.00;;;11.97;;
5890;SDS011;2971;52.420;7.080;2023-07-02T06:55:33;21.30;;;11.07;;
5890;SDS011;2971;52.420;7.080;2023-07-02T06:57:59;20.30;;;10.20;;
5890;SDS011;2971;52.420;7.080;2023-07-02T07:00:24;19.87;;;10.20;;
5890;SDS011;2971;52.420;7.080;2023-07-02T07:02:49;23.67;;;11.50;;
5890;SDS011;2971;52.420;7.080;2023-07-02T07:05:15;21.13;;;10.03;;
5890;SDS011;2971;52.420;7.080;2023-07-02T07:07:40;21.43;;;10.20;;
5890;SDS011;2971;52.420;7.080;2023-07-02T07:10:06;22.63;;;10.87;;
5890;SDS011;2971;52.420;7.080;2023-07-02T07:12:31;21.97;;;9.93;;
5890;SDS011;2971;52.420;7.080;2023-07-02T07:14:57;20.67;;;10.03;;
5890;SDS011;2971;52.420;7.080;2023-07-02T07:17:22;22.33;;;10.20;;
5890;SDS011;2971;52.420;7.080;2023-07-02T07:19:47;20.13;;;9.90;;
5890;SDS011;2971;52.420;7.080;2023-07-02T07:22:13;21.17;;;11.07;;
5890;SDS011;2971;52.420;7.080;2023-07-02T07:24:39;19.37;;;10.00;;
5890;SDS011;2971;52.420;7.080;2023-07-02T07:27:05;21.30;;;9.83;;
5890;SDS011;2971;52.420;7.080;2023-07-02T07:29:30;19.90;;;9.83;;
5890;SDS011;2971;52.420;7.080;2023-07-02T07:31:55;20.03;;;10.33;;
5890;SDS011;2971;52.420;7.080;2023-07-02T07:34:20;19.13;;;9.93;;
5890;SDS011;2971;52.420;7.080;2023-07-02T07:36:46;19.07;;;9.27;;
5890;SDS011;2971;52.420;7.080;2023-07-02T07:39:11;18.37;;;10.37;;
5890;SDS011;2971;52.420;7.080;2023-07-02T07:41:36;20.80;;;10.23;;
5890;SDS011;2971;52.420;7.080;2023-07-02T07:44:01;19.23;;;9.70;;
5890;SDS011;2971;52.420;7.080;2023-07-02T07:46:27;19.93;;;9.73;;
5890;SDS011;2971;52.420;7.080;2023-07-02T07:48:52;20.73;;;10.13;;
5890;SDS011;2971;52.420;7.080;2023-07-02T07:51:17;21.33;;;9.80;;
5890;SDS011;2971;52.420;7.080;2023-07-02T07:53:43;17.83;;;9.90;;
5890;SDS011;2971;52.420;7.080;2023-07-02T07:56:08;17.57;;;9.20;;
5890;SDS011;2971;52.420;7.080;2023-07-02T07:58:33;16.50;;;9.03;;
5890;SDS011;2971;52.420;7.080;2023-07-02T08:00:58;17.33;;;8.93;;
5890;SDS011;2971;52.420;7.080;2023-07-02T08:03:24;16.47;;;9.83;;
5890;SDS011;2971;52.420;7.080;2023-07-02T08:05:49;16.30;;;9.63;;
5890;SDS011;2971;52.420;7.080;2023-07-02T08:08:14;17.90;;;9.70;;
5890;SDS011;2971;52.420;7.080;2023-07-02T08:10:39;16.03;;;9.40;;
5890;SDS011;2971;52.420;7.080;2023-07-02T08:13:05;19.53;;;10.23;;
5890;SDS011;2971;52.420;7.080;2023-07-02T08:15:30;17.67;;;9.17;;
5890;SDS011;2971;52.420;7.080;2023-07-02T08:17:55;21.90;;;9.20;;
5890;SDS011;2971;52.420;7.080;2023-07-02T08:20:23;14.97;;;8.50;;
5890;SDS011;2971;52.420;7.080;2023-07-02T08:22:48;17.80;;;9.47;;
5890;SDS011;2971;52.420;7.080;2023-07-02T08:25:16;14.97;;;9.00;;
5890;SDS011;2971;52.420;7.080;2023-07-02T08:27:42;15.83;;;9.30;;
5890;SDS011;2971;52.420;7.080;2023-07-02T08:30:07;19.47;;;9.80;;
5890;SDS011;2971;52.420;7.080;2023-07-02T08:32:33;18.00;;;8.73;;
5890;SDS011;2971;52.420;7.080;2023-07-02T08:34:58;17.33;;;8.97;;
5890;SDS011;2971;52.420;7.080;2023-07-02T08:37:23;15.47;;;8.60;;
5890;SDS011;2971;52.420;7.080;2023-07-02T08:39:49;16.23;;;8.33;;
5890;SDS011;2971;52.420;7.080;2023-07-02T08:42:14;12.97;;;7.47;;
5890;SDS011;2971;52.420;7.080;2023-07-02T08:44:40;12.77;;;7.80;;
5890;SDS011;2971;52.420;7.080;2023-07-02T08:47:06;12.50;;;7.93;;
5890;SDS011;2971;52.420;7.080;2023-07-02T08:49:33;13.10;;;7.83;;
5890;SDS011;2971;52.420;7.080;2023-07-02T08:51:58;17.70;;;8.37;;
5890;SDS011;2971;52.420;7.080;2023-07-02T08:54:23;15.60;;;8.63;;
5890;SDS011;2971;52.420;7.080;2023-07-02T08:56:49;16.97;;;8.60;;
5890;SDS011;2971;52.420;7.080;2023-07-02T08:59:14;14.67;;;7.97;;
5890;SDS011;2971;52.420;7.080;2023-07-02T09:01:48;13.53;;;7.90;;
5890;SDS011;2971;52.420;7.080;2023-07-02T09:04:14;13.60;;;7.83;;
5890;SDS011;2971;52.420;7.080;2023-07-02T09:06:40;13.03;;;7.47;;
5890;SDS011;2971;52.420;7.080;2023-07-02T09:09:05;12.43;;;8.23;;
5890;SDS011;2971;52.420;7.080;2023-07-02T09:11:30;14.10;;;8.30;;
5890;SDS011;2971;52.420;7.080;2023-07-02T09:13:56;15.60;;;7.30;;
5890;SDS011;2971;52.420;7.080;2023-07-02T09:16:28;14.17;;;8.03;;
5890;SDS011;2971;52.420;7.080;2023-07-02T09:21:25;13.80;;;7.40;;
5890;SDS011;2971;52.420;7.080;2023-07-02T09:23:51;11.03;;;7.50;;
5890;SDS011;2971;52.420;7.080;2023-07-02T09:26:20;11.27;;;7.00;;
5890;SDS011;2971;52.420;7.080;2023-07-02T09:28:46;13.90;;;7.20;;
5890;SDS011;2971;52.420;7.080;2023-07-02T09:31:11;11.57;;;7.07;;
5890;SDS011;2971;52.420;7.080;2023-07-02T09:33:37;12.90;;;7.43;;
5890;SDS011;2971;52.420;7.080;2023-07-02T09:36:02;12.10;;;6.83;;
5890;SDS011;2971;52.420;7.080;2023-07-02T09:38:27;13.40;;;7.60;;
5890;SDS011;2971;52.420;7.080;2023-07-02T09:40:53;14.20;;;7.10;;
5890;SDS011;2971;52.420;7.080;2023-07-02T09:43:18;11.10;;;6.53;;
5890;SDS011;2971;52.420;7.080;2023-07-02T09:45:44;11.77;;;6.67;;
5890;SDS011;2971;52.420;7.080;2023-07-02T09:48:12;11.33;;;6.70;;
5890;SDS011;2971;52.420;7.080;2023-07-02T09:50:38;9.57;;;6.33;;
5890;SDS011;2971;52.420;7.080;2023-07-02T09:53:03;11.87;;;6.73;;
5890;SDS011;2971;52.420;7.080;2023-07-02T09:55:29;11.93;;;6.70;;
5890;SDS011;2971;52.420;7.080;2023-07-02T09:57:54;10.90;;;5.93;;
5890;SDS011;2971;52.420;7.080;2023-07-02T10:00:19;11.57;;;6.63;;
5890;SDS011;2971;52.420;7.080;2023-07-02T10:02:48;11.87;;;7.07;;
5890;SDS011;2971;52.420;7.080;2023-07-02T10:05:30;12.60;;;6.50;;
5890;SDS011;2971;52.420;7.080;2023-07-02T10:07:59;10.10;;;6.60;;
5890;SDS011;2971;52.420;7.080;2023-07-02T10:10:35;14.70;;;7.50;;
5890;SDS011;2971;52.420;7.080;2023-07-02T10:13:01;13.10;;;6.87;;
5890;SDS011;2971;52.420;7.080;2023-07-02T10:15:27;12.87;;;7.30;;
5890;SDS011;2971;52.420;7.080;2023-07-02T10:17:56;13.50;;;7.00;;
5890;SDS011;2971;52.420;7.080;2023-07-02T10:20:30;8.63;;;6.33;;
5890;SDS011;2971;52.420;7.080;2023-07-02T10:22:56;9.33;;;5.97;;
5890;SDS011;2971;52.420;7.080;2023-07-02T10:25:25;11.30;;;5.53;;
5890;SDS011;2971;52.420;7.080;2023-07-02T10:27:50;8.33;;;5.00;;
5890;SDS011;2971;52.420;7.080;2023-07-02T10:30:16;12.20;;;4.77;;
5890;SDS011;2971;52.420;7.080;2023-07-02T10:32:41;9.67;;;4.43;;
5890;SDS011;2971;52.420;7.080;2023-07-02T10:37:37;9.87;;;4.73;;
5890;SDS011;2971;52.420;7.080;2023-07-02T10:40:04;8.10;;;4.40;;
5890;SDS011;2971;52.420;7.080;2023-07-02T10:42:30;8.73;;;4.30;;
5890;SDS011;2971;52.420;7.080;2023-07-02T10:44:55;9.93;;;4.07;;
5890;SDS011;2971;52.420;7.080;2023-07-02T10:47:21;8.70;;;4.60;;
5890;SDS011;2971;52.420;7.080;2023-07-02T10:49:46;7.80;;;4.40;;
5890;SDS011;2971;52.420;7.080;2023-07-02T10:52:11;9.43;;;4.77;;
5890;SDS011;2971;52.420;7.080;2023-07-02T10:54:45;8.73;;;5.50;;
5890;SDS011;2971;52.420;7.080;2023-07-02T10:57:12;8.07;;;5.17;;
5890;SDS011;2971;52.420;7.080;2023-07-02T10:59:37;9.43;;;5.60;;
5890;SDS011;2971;52.420;7.080;2023-07-02T11:02:03;8.63;;;5.37;;
5890;SDS011;2971;52.420;7.080;2023-07-02T11:04:32;9.13;;;5.33;;
5890;SDS011;2971;52.420;7.080;2023-07-02T11:06:58;7.50;;;4.73;;
5890;SDS011;2971;52.420;7.080;2023-07-02T11:09:24;10.93;;;5.03;;
5890;SDS011;2971;52.420;7.080;2023-07-02T11:11:59;8.00;;;4.87;;
5890;SDS011;2971;52.420;7.080;2023-07-02T11:14:29;7.77;;;4.70;;
5890;SDS011;2971;52.420;7.080;2023-07-02T11:16:54;8.30;;;5.13;;
5890;SDS011;2971;52.420;7.080;2023-07-02T11:19:20;9.57;;;5.23;;
5890;SDS011;2971;52.420;7.080;2023-07-02T11:21:52;8.23;;;5.07;;
5890;SDS011;2971;52.420;7.080;2023-07-02T11:24:26;9.10;;;5.17;;
5890;SDS011;2971;52.420;7.080;2023-07-02T11:26:51;8.87;;;5.60;;
5890;SDS011;2971;52.420;7.080;2023-07-02T11:29:19;10.57;;;5.40;;
5890;SDS011;2971;52.420;7.080;2023-07-02T11:31:45;10.43;;;5.83;;
5890;SDS011;2971;52.420;7.080;2023-07-02T11:34:11;13.97;;;6.10;;
5890;SDS011;2971;52.420;7.080;2023-07-02T11:36:37;11.17;;;6.10;;
5890;SDS011;2971;52.420;7.080;2023-07-02T11:39:02;11.70;;;5.67;;
5890;SDS011;2971;52.420;7.080;2023-07-02T11:41:36;12.20;;;5.60;;
5890;SDS011;2971;52.420;7.080;2023-07-02T11:44:01;9.37;;;4.50;;
5890;SDS011;2971;52.420;7.080;2023-07-02T11:46:26;7.67;;;4.30;;
5890;SDS011;2971;52.420;7.080;2023-07-02T11:48:51;10.87;;;4.93;;
5890;SDS011;2971;52.420;7.080;2023-07-02T11:51:17;11.83;;;5.10;;
5890;SDS011;2971;52.420;7.080;2023-07-02T11:53:42;10.23;;;5.07;;
5890;SDS011;2971;52.420;7.080;2023-07-02T11:56:08;10.07;;;4.93;;
5890;SDS011;2971;52.420;7.080;2023-07-02T11:58:34;8.43;;;4.40;;
5890;SDS011;2971;52.420;7.080;2023-07-02T12:00:59;8.13;;;4.43;;
5890;SDS011;2971;52.420;7.080;2023-07-02T12:03:25;10.67;;;4.67;;
5890;SDS011;2971;52.420;7.080;2023-07-02T12:05:50;10.13;;;4.50;;
5890;SDS011;2971;52.420;7.080;2023-07-02T12:08:16;9.63;;;4.27;;
5890;SDS011;2971;52.420;7.080;2023-07-02T12:10:41;6.23;;;4.10;;
5890;SDS011;2971;52.420;7.080;2023-07-02T12:13:06;10.23;;;4.37;;
5890;SDS011;2971;52.420;7.080;2023-07-02T12:15:32;9.13;;;4.43;;
5890;SDS011;2971;52.420;7.080;2023-07-02T12:17:57;8.17;;;4.40;;
5890;SDS011;2971;52.420;7.080;2023-07-02T12:20:22;7.87;;;4.37;;
5890;SDS011;2971;52.420;7.080;2023-07-02T12:22:47;7.47;;;3.80;;
5890;SDS011;2971;52.420;7.080;2023-07-02T12:25:13;11.23;;;4.40;;
5890;SDS011;2971;52.420;7.080;2023-07-02T12:27:38;10.33;;;4.00;;
5890;SDS011;2971;52.420;7.080;2023-07-02T12:30:04;7.50;;;3.60;;
5890;SDS011;2971;52.420;7.080;2023-07-02T12:32:30;5.50;;;3.67;;
5890;SDS011;2971;52.420;7.080;2023-07-02T12:34:55;7.97;;;3.90;;
5890;SDS011;2971;52.420;7.080;2023-07-02T12:37:20;6.33;;;3.40;;
5890;SDS011;2971;52.420;7.080;2023-07-02T12:39:46;7.40;;;3.67;;
5890;SDS011;2971;52.420;7.080;2023-07-02T12:42:11;7.63;;;3.50;;
5890;SDS011;2971;52.420;7.080;2023-07-02T12:44:36;6.43;;;3.70;;
5890;SDS011;2971;52.420;7.080;2023-07-02T12:47:02;6.93;;;3.53;;
5890;SDS011;2971;52.420;7.080;2023-07-02T12:49:28;7.27;;;3.70;;
5890;SDS011;2971;52.420;7.080;2023-07-02T12:51:53;6.17;;;3.63;;
5890;SDS011;2971;52.420;7.080;2023-07-02T12:54:18;4.60;;;3.20;;
5890;SDS011;2971;52.420;7.080;2023-07-02T12:56:43;4.97;;;3.10;;
5890;SDS011;2971;52.420;7.080;2023-07-02T12:59:09;6.67;;;3.27;;
5890;SDS011;2971;52.420;7.080;2023-07-02T13:01:34;4.73;;;3.13;;
5890;SDS011;2971;52.420;7.080;2023-07-02T13:03:59;8.37;;;3.27;;
5890;SDS011;2971;52.420;7.080;2023-07-02T13:06:25;5.60;;;3.30;;
5890;SDS011;2971;52.420;7.080;2023-07-02T13:08:51;5.40;;;3.40;;
5890;SDS011;2971;52.420;7.080;2023-07-02T13:11:17;7.47;;;3.33;;
5890;SDS011;2971;52.420;7.080;2023-07-02T13:13:43;5.93;;;2.90;;
5890;SDS011;2971;52.420;7.080;2023-07-02T13:16:08;4.93;;;3.00;;
5890;SDS011;2971;52.420;7.080;2023-07-02T13:18:33;6.00;;;2.90;;
5890;SDS011;2971;52.420;7.080;2023-07-02T13:20:58;7.23;;;3.50;;
5890;SDS011;2971;52.420;7.080;2023-07-02T13:23:24;5.17;;;2.77;;
5890;SDS011;2971;52.420;7.080;2023-07-02T13:25:49;9.47;;;3.53;;
5890;SDS011;2971;52.420;7.080;2023-07-02T13:28:14;5.60;;;3.20;;
5890;SDS011;2971;52.420;7.080;2023-07-02T13:30:39;6.83;;;3.30;;
5890;SDS011;2971;52.420;7.080;2023-07-02T13:33:05;6.10;;;3.40;;
5890;SDS011;2971;52.420;7.080;2023-07-02T13:35:30;5.93;;;3.33;;
5890;SDS011;2971;52.420;7.080;2023-07-02T13:37:56;5.47;;;3.80;;
5890;SDS011;2971;52.420;7.080;2023-07-02T13:40:21;4.63;;;3.37;;
5890;SDS011;2971;52.420;7.080;2023-07-02T13:42:47;6.10;;;3.70;;
5890;SDS011;2971;52.420;7.080;2023-07-02T13:45:12;6.60;;;4.00;;
5890;SDS011;2971;52.420;7.080;2023-07-02T13:47:37;7.03;;;4.00;;
5890;SDS011;2971;52.420;7.080;2023-07-02T13:50:03;5.73;;;3.70;;
5890;SDS011;2971;52.420;7.080;2023-07-02T13:52:29;7.40;;;3.80;;
5890;SDS011;2971;52.420;7.080;2023-07-02T13:54:54;7.00;;;3.80;;
5890;SDS011;2971;52.420;7.080;2023-07-02T13:57:19;5.93;;;3.73;;
5890;SDS011;2971;52.420;7.080;2023-07-02T13:59:45;7.27;;;4.07;;
5890;SDS011;2971;52.420;7.080;2023-07-02T14:02:10;8.30;;;4.37;;
5890;SDS011;2971;52.420;7.080;2023-07-02T14:04:35;6.90;;;4.00;;
5890;SDS011;2971;52.420;7.080;2023-07-02T14:07:02;7.40;;;3.83;;
5890;SDS011;2971;52.420;7.080;2023-07-02T14:09:27;9.73;;;4.70;;
5890;SDS011;2971;52.420;7.080;2023-07-02T14:11:52;10.00;;;3.87;;
5890;SDS011;2971;52.420;7.080;2023-07-02T14:14:18;7.90;;;4.33;;
5890;SDS011;2971;52.420;7.080;2023-07-02T14:16:43;5.33;;;3.40;;
5890;SDS011;2971;52.420;7.080;2023-07-02T14:19:08;6.17;;;4.03;;
5890;SDS011;2971;52.420;7.080;2023-07-02T14:21:33;8.47;;;4.20;;
5890;SDS011;2971;52.420;7.080;2023-07-02T14:23:59;9.03;;;4.43;;
5890;SDS011;2971;52.420;7.080;2023-07-02T14:26:24;6.80;;;4.60;;
5890;SDS011;2971;52.420;7.080;2023-07-02T14:28:49;7.57;;;4.43;;
5890;SDS011;2971;52.420;7.080;2023-07-02T14:31:15;7.67;;;4.20;;
5890;SDS011;2971;52.420;7.080;2023-07-02T14:33:40;7.13;;;4.10;;
5890;SDS011;2971;52.420;7.080;2023-07-02T14:36:05;7.30;;;4.47;;
5890;SDS011;2971;52.420;7.080;2023-07-02T14:38:31;8.60;;;4.37;;
5890;SDS011;2971;52.420;7.080;2023-07-02T14:40:58;6.07;;;4.37;;
5890;SDS011;2971;52.420;7.080;2023-07-02T14:43:24;6.57;;;4.07;;
5890;SDS011;2971;52.420;7.080;2023-07-02T14:45:50;7.53;;;4.47;;
5890;SDS011;2971;52.420;7.080;2023-07-02T14:48:16;8.10;;;4.37;;
5890;SDS011;2971;52.420;7.080;2023-07-02T14:50:43;10.13;;;4.33;;
5890;SDS011;2971;52.420;7.080;2023-07-02T14:53:08;6.80;;;4.00;;
5890;SDS011;2971;52.420;7.080;2023-07-02T14:55:33;7.77;;;4.43;;
5890;SDS011;2971;52.420;7.080;2023-07-02T14:57:59;8.10;;;4.07;;
5890;SDS011;2971;52.420;7.080;2023-07-02T15:00:24;7.47;;;4.20;;